Time;durP1;ratioP1;P1;durP2;ratioP2;P2;SDS_P1;SDS_P2;PMS_P1;PMS_P2;Temp;Humidity;BMP_temperature;BMP_pressure;BME280_temperature;BME280_humidity;BME280_pressure;Samples;Min_cycle;Max_cycle;Signal;HPM_P1;HPM_P2
2023/12/13 00:01:35;;;;;;;12.83;8.40;;;6.60;99.90;;;;;;5001023;28;21087;-63
2023/12/13 00:04:04;;;;;;;12.47;9.70;;;6.60;99.90;;;;;;4993903;28;20496;-63
2023/12/13 00:06:34;;;;;;;12.20;8.90;;;6.50;99.90;;;;;;4994689;28;21094;-63
2023/12/13 00:09:02;;;;;;;11.77;8.67;;;6.50;99.90;;;;;;4999671;28;20903;-63
2023/12/13 00:11:31;;;;;;;12.77;9.50;;;6.50;99.90;;;;;;4996597;28;20554;-62
2023/12/13 00:13:59;;;;;;;11.27;8.83;;;6.50;99.90;;;;;;4996510;28;20586;-63
2023/12/13 00:16:27;;;;;;;12.23;8.60;;;6.50;99.90;;;;;;4997475;28;20538;-62
2023/12/13 00:18:55;;;;;;;12.80;8.57;;;6.50;99.90;;;;;;5002622;28;20898;-64
2023/12/13 00:21:24;;;;;;;11.37;8.50;;;6.50;99.90;;;;;;4996300;28;20733;-64
2023/12/13 00:23:53;;;;;;;10.87;8.47;;;6.50;99.90;;;;;;4998732;28;20596;-63
2023/12/13 00:26:22;;;;;;;13.27;8.97;;;6.50;99.90;;;;;;5000599;28;22406;-64
2023/12/13 00:28:51;;;;;;;11.03;8.30;;;6.50;99.90;;;;;;4998148;28;20817;-63
2023/12/13 00:31:20;;;;;;;10.40;8.30;;;6.50;99.90;;;;;;4987309;28;20473;-64
2023/12/13 00:33:48;;;;;;;11.90;9.20;;;6.40;99.90;;;;;;4994530;28;20476;-62
2023/12/13 00:36:16;;;;;;;14.17;9.20;;;6.40;99.90;;;;;;4994627;28;20484;-63
2023/12/13 00:38:44;;;;;;;13.83;9.10;;;6.40;99.90;;;;;;5003978;28;20483;-63
2023/12/13 00:41:13;;;;;;;12.77;8.53;;;6.40;99.90;;;;;;4990130;28;20567;-63
2023/12/13 00:43:41;;;;;;;12.50;9.90;;;6.40;99.90;;;;;;4999100;28;21099;-63
2023/12/13 00:46:15;;;;;;;14.97;9.23;;;6.40;99.90;;;;;;4997509;28;20927;-64
2023/12/13 00:48:43;;;;;;;12.57;9.20;;;6.40;99.90;;;;;;5001652;28;20472;-63
2023/12/13 00:51:16;;;;;;;11.80;8.70;;;6.40;99.90;;;;;;4987578;28;21100;-63
2023/12/13 00:53:44;;;;;;;11.33;9.07;;;6.40;99.90;;;;;;4999453;28;21075;-63
2023/12/13 00:56:14;;;;;;;10.40;8.20;;;6.40;99.90;;;;;;4996659;28;20504;-64
2023/12/13 00:58:43;;;;;;;11.07;8.60;;;6.40;99.90;;;;;;4999995;28;20475;-63
2023/12/13 01:01:11;;;;;;;11.97;8.10;;;6.40;99.90;;;;;;4991915;28;20511;-63
2023/12/13 01:03:39;;;;;;;13.07;8.70;;;6.30;99.90;;;;;;4999107;28;20587;-63
2023/12/13 01:06:09;;;;;;;9.57;7.60;;;6.30;99.90;;;;;;4997823;28;20617;-63
2023/12/13 01:08:37;;;;;;;9.70;7.57;;;6.40;99.90;;;;;;4996043;28;20993;-64
2023/12/13 01:11:08;;;;;;;9.77;7.30;;;6.30;99.90;;;;;;4998788;28;20550;-63
2023/12/13 01:13:38;;;;;;;10.23;6.80;;;6.30;99.90;;;;;;4996876;28;20577;-64
2023/12/13 01:16:06;;;;;;;9.70;6.90;;;6.30;99.90;;;;;;4997788;28;21012;-63
2023/12/13 01:18:35;;;;;;;8.20;6.87;;;6.30;99.90;;;;;;5003118;28;20488;-62
2023/12/13 01:21:03;;;;;;;10.13;6.63;;;6.30;99.90;;;;;;5006703;28;20991;-61
2023/12/13 01:23:31;;;;;;;7.77;6.13;;;6.30;99.90;;;;;;5000753;28;20634;-61
2023/12/13 01:25:59;;;;;;;7.93;6.30;;;6.30;99.90;;;;;;5000398;28;20579;-63
2023/12/13 01:28:27;;;;;;;7.83;5.67;;;6.30;99.90;;;;;;5003719;28;20942;-62
2023/12/13 01:30:57;;;;;;;7.77;5.83;;;6.30;99.90;;;;;;4998062;28;20488;-62
2023/12/13 01:33:25;;;;;;;6.57;5.80;;;6.30;99.90;;;;;;4994563;28;20859;-62
2023/12/13 01:35:54;;;;;;;7.10;5.60;;;6.30;99.90;;;;;;5000010;28;20498;-63
2023/12/13 01:38:22;;;;;;;7.30;5.10;;;6.30;99.90;;;;;;5003434;28;20475;-63
2023/12/13 01:40:51;;;;;;;6.10;5.00;;;6.30;99.90;;;;;;5002188;28;20618;-63
2023/12/13 01:43:39;;;;;;;5.07;4.20;;;6.30;99.90;;;;;;4992817;28;20503;-64
2023/12/13 01:46:09;;;;;;;6.10;4.90;;;6.20;99.90;;;;;;4999914;28;21563;-63
2023/12/13 01:48:37;;;;;;;5.93;4.50;;;6.20;99.90;;;;;;4999519;28;20473;-62
2023/12/13 01:51:06;;;;;;;6.40;4.80;;;6.20;99.90;;;;;;4997027;28;20504;-62
2023/12/13 01:53:35;;;;;;;5.90;4.30;;;6.20;99.90;;;;;;5000330;28;20557;-63
2023/12/13 01:56:05;;;;;;;5.20;4.40;;;6.20;99.90;;;;;;5002407;28;20500;-64
2023/12/13 01:58:36;;;;;;;5.63;4.30;;;6.20;99.90;;;;;;4996693;28;20840;-64
2023/12/13 02:01:05;;;;;;;4.60;3.83;;;6.20;99.90;;;;;;5000615;28;20475;-64
2023/12/13 02:03:36;;;;;;;5.27;4.10;;;6.20;99.90;;;;;;4994785;28;20480;-64
2023/12/13 02:06:04;;;;;;;6.47;4.80;;;6.20;99.90;;;;;;4998316;28;20487;-60
2023/12/13 02:08:33;;;;;;;4.30;3.80;;;6.20;99.90;;;;;;4997331;28;20468;-64
2023/12/13 02:11:01;;;;;;;4.80;3.53;;;6.20;99.90;;;;;;4999928;28;20594;-64
2023/12/13 02:13:29;;;;;;;5.37;3.70;;;6.20;99.90;;;;;;5002963;28;20570;-64
2023/12/13 02:15:58;;;;;;;4.50;3.90;;;6.20;99.90;;;;;;5003866;28;20484;-64
2023/12/13 02:18:27;;;;;;;4.83;4.33;;;6.20;99.90;;;;;;5003039;28;20554;-63
2023/12/13 02:20:57;;;;;;;4.07;3.67;;;6.20;99.90;;;;;;5002975;28;20582;-64
2023/12/13 02:23:26;;;;;;;3.80;3.40;;;6.20;99.90;;;;;;5000948;28;20643;-63
2023/12/13 02:25:58;;;;;;;4.10;3.60;;;6.20;99.90;;;;;;4995773;28;20968;-64
2023/12/13 02:28:27;;;;;;;4.40;3.90;;;6.20;99.90;;;;;;5001771;28;20468;-63
2023/12/13 02:30:57;;;;;;;4.77;3.40;;;6.10;99.90;;;;;;4998403;28;21023;-64
2023/12/13 02:33:25;;;;;;;3.93;3.53;;;6.10;99.90;;;;;;4992205;28;20604;-64
2023/12/13 02:35:54;;;;;;;3.77;3.20;;;6.10;99.90;;;;;;5001596;28;20557;-64
2023/12/13 02:38:22;;;;;;;3.67;3.30;;;6.10;99.90;;;;;;5002528;28;20912;-64
2023/12/13 02:40:52;;;;;;;4.83;3.20;;;6.10;99.90;;;;;;5001466;28;21024;-64
2023/12/13 02:43:21;;;;;;;3.67;3.27;;;6.00;99.90;;;;;;5004993;28;20857;-63
2023/12/13 02:45:49;;;;;;;3.93;3.53;;;6.00;99.90;;;;;;5002524;28;20491;-63
2023/12/13 02:48:17;;;;;;;3.77;3.37;;;6.00;99.90;;;;;;5002640;28;20915;-63
2023/12/13 02:50:48;;;;;;;3.53;3.00;;;6.00;99.90;;;;;;5001280;28;20493;-64
2023/12/13 02:53:16;;;;;;;4.00;2.60;;;6.00;99.90;;;;;;4995949;28;20476;-64
2023/12/13 02:55:44;;;;;;;3.13;2.80;;;6.00;99.90;;;;;;4992348;28;21019;-64
2023/12/13 02:58:14;;;;;;;3.20;2.80;;;6.00;99.90;;;;;;5003618;28;20606;-62
2023/12/13 03:00:42;;;;;;;3.03;2.73;;;6.00;99.90;;;;;;5005447;28;20487;-64
2023/12/13 03:03:10;;;;;;;3.20;2.90;;;6.00;99.90;;;;;;5004829;28;20464;-63
2023/12/13 03:05:38;;;;;;;2.80;2.53;;;6.00;99.90;;;;;;5001311;28;20498;-63
2023/12/13 03:08:06;;;;;;;3.10;2.80;;;6.00;99.90;;;;;;5001555;28;20488;-63
2023/12/13 03:10:34;;;;;;;3.47;3.17;;;6.00;99.90;;;;;;5003004;28;20522;-63
2023/12/13 03:13:02;;;;;;;3.73;2.93;;;6.00;99.90;;;;;;5001136;28;20480;-63
2023/12/13 03:15:31;;;;;;;2.50;2.30;;;5.90;99.90;;;;;;5000032;28;20581;-63
2023/12/13 03:17:59;;;;;;;3.27;2.97;;;5.90;99.90;;;;;;5001571;28;20593;-63
2023/12/13 03:20:27;;;;;;;3.70;3.30;;;5.90;99.90;;;;;;5002334;28;20468;-61
2023/12/13 03:22:55;;;;;;;3.30;2.93;;;5.90;99.90;;;;;;5002046;28;20472;-63
2023/12/13 03:25:23;;;;;;;3.40;3.10;;;6.00;99.90;;;;;;5001567;28;20500;-63
2023/12/13 03:27:51;;;;;;;3.30;3.00;;;5.90;99.90;;;;;;5000899;28;20480;-63
2023/12/13 03:30:19;;;;;;;4.50;3.30;;;5.90;99.90;;;;;;4999707;28;20925;-64
2023/12/13 03:32:49;;;;;;;3.23;2.97;;;5.90;99.90;;;;;;4993052;28;20519;-63
2023/12/13 03:35:17;;;;;;;3.20;2.90;;;5.90;99.90;;;;;;4998315;28;24403;-64
2023/12/13 03:37:45;;;;;;;5.57;3.00;;;5.90;99.90;;;;;;5004260;28;20504;-64
2023/12/13 03:40:14;;;;;;;3.97;3.53;;;5.90;99.90;;;;;;4998755;28;20488;-64
2023/12/13 03:42:42;;;;;;;3.37;3.07;;;5.90;99.90;;;;;;5003876;28;20619;-63
2023/12/13 03:45:10;;;;;;;4.27;3.47;;;5.90;99.90;;;;;;5000189;28;20495;-64
2023/12/13 03:47:38;;;;;;;3.57;3.27;;;5.90;99.90;;;;;;5003762;28;21035;-63
2023/12/13 03:50:09;;;;;;;4.07;3.50;;;5.90;99.90;;;;;;4995571;28;20468;-63
2023/12/13 03:52:37;;;;;;;3.57;3.27;;;5.90;99.90;;;;;;5001591;28;20500;-62
2023/12/13 03:55:06;;;;;;;5.17;3.40;;;5.90;99.90;;;;;;5003132;28;20492;-63
2023/12/13 03:57:34;;;;;;;3.93;3.10;;;5.90;99.90;;;;;;5001049;28;20567;-64
2023/12/13 04:00:03;;;;;;;4.10;3.60;;;5.90;99.90;;;;;;5001570;28;20480;-64
2023/12/13 04:02:31;;;;;;;3.97;3.57;;;5.90;99.90;;;;;;4997041;28;20928;-64
2023/12/13 04:04:59;;;;;;;3.90;3.40;;;5.90;99.90;;;;;;4993066;28;20643;-63
2023/12/13 04:07:28;;;;;;;4.47;3.70;;;5.90;99.90;;;;;;5003030;28;20563;-63
2023/12/13 04:09:56;;;;;;;3.43;3.10;;;5.90;99.90;;;;;;4997555;28;20474;-64
2023/12/13 04:12:25;;;;;;;3.87;3.30;;;5.90;99.90;;;;;;5002459;28;20531;-63
2023/12/13 04:14:52;;;;;;;3.40;3.10;;;5.80;99.90;;;;;;4995837;28;20500;-63
2023/12/13 04:17:20;;;;;;;4.87;3.60;;;5.80;99.90;;;;;;5004556;28;20475;-64
2023/12/13 04:19:48;;;;;;;3.90;3.43;;;5.80;99.90;;;;;;5000281;28;20551;-63
2023/12/13 04:22:16;;;;;;;4.13;3.20;;;5.80;99.90;;;;;;5002749;28;20464;-64
2023/12/13 04:24:46;;;;;;;3.80;3.40;;;5.80;99.90;;;;;;5000494;28;20492;-63
2023/12/13 04:27:14;;;;;;;3.73;3.40;;;5.80;99.90;;;;;;4998350;28;20483;-62
2023/12/13 04:29:42;;;;;;;3.60;3.30;;;5.80;99.90;;;;;;5004404;28;20496;-64
2023/12/13 04:32:10;;;;;;;3.40;3.10;;;5.80;99.90;;;;;;5000693;28;21104;-62
2023/12/13 04:34:38;;;;;;;3.80;3.10;;;5.80;99.90;;;;;;4989170;28;21083;-67
2023/12/13 04:37:06;;;;;;;4.20;3.63;;;5.80;99.90;;;;;;5002040;28;20473;-67
2023/12/13 04:39:34;;;;;;;4.00;3.27;;;5.80;99.90;;;;;;5003527;28;21017;-65
2023/12/13 04:42:06;;;;;;;3.90;3.50;;;5.80;99.90;;;;;;4995863;28;21007;-66
2023/12/13 04:44:34;;;;;;;3.90;3.50;;;5.80;99.90;;;;;;5001000;28;20596;-65
2023/12/13 04:47:02;;;;;;;3.70;3.40;;;5.80;99.90;;;;;;5000893;28;20567;-66
2023/12/13 04:49:32;;;;;;;4.47;3.60;;;5.80;99.90;;;;;;4991095;28;20480;-66
2023/12/13 04:52:00;;;;;;;4.07;3.53;;;5.80;99.90;;;;;;4994743;28;20500;-65
2023/12/13 04:54:28;;;;;;;3.80;3.40;;;5.80;99.90;;;;;;4995535;28;21269;-65
2023/12/13 04:56:56;;;;;;;4.63;3.40;;;5.80;99.90;;;;;;4995091;28;20822;-66
2023/12/13 04:59:25;;;;;;;4.00;3.60;;;5.80;99.90;;;;;;4997395;28;20492;-65
2023/12/13 05:01:54;;;;;;;4.10;3.70;;;5.80;99.90;;;;;;4997394;28;20554;-66
2023/12/13 05:04:22;;;;;;;4.20;3.80;;;5.80;99.90;;;;;;4998180;28;20496;-66
2023/12/13 05:06:50;;;;;;;4.03;3.63;;;5.80;99.90;;;;;;4997312;28;20910;-67
2023/12/13 05:09:18;;;;;;;4.10;3.70;;;5.80;99.90;;;;;;5000043;28;20476;-66
2023/12/13 05:11:46;;;;;;;4.50;3.87;;;5.80;99.90;;;;;;4997967;28;20542;-68
2023/12/13 05:14:14;;;;;;;4.10;3.70;;;5.80;99.90;;;;;;5000493;28;20494;-66
2023/12/13 05:16:44;;;;;;;4.23;3.83;;;5.80;99.90;;;;;;4997615;28;21144;-65
2023/12/13 05:19:12;;;;;;;4.67;4.00;;;5.80;99.90;;;;;;4988153;28;20838;-65
2023/12/13 05:21:40;;;;;;;4.60;4.07;;;5.70;99.90;;;;;;4990669;28;20540;-65
2023/12/13 05:24:08;;;;;;;4.80;4.10;;;5.80;99.90;;;;;;4996314;28;20484;-65
2023/12/13 05:26:36;;;;;;;4.20;3.70;;;5.80;99.90;;;;;;5001813;28;20476;-67
2023/12/13 05:29:04;;;;;;;4.13;3.73;;;5.80;99.90;;;;;;4996765;28;20858;-67
2023/12/13 05:31:33;;;;;;;5.00;4.27;;;5.80;99.90;;;;;;4991720;28;20867;-65
2023/12/13 05:34:02;;;;;;;4.40;4.00;;;5.80;99.90;;;;;;4994963;28;20845;-66
2023/12/13 05:36:31;;;;;;;4.23;3.70;;;5.80;99.90;;;;;;4988414;28;20598;-66
2023/12/13 05:38:59;;;;;;;5.27;3.97;;;5.80;99.90;;;;;;4989739;28;20476;-66
2023/12/13 05:41:27;;;;;;;4.00;3.60;;;5.80;99.90;;;;;;4997089;28;20491;-68
2023/12/13 05:43:55;;;;;;;4.53;4.13;;;5.70;99.90;;;;;;4996231;28;20681;-67
2023/12/13 05:46:23;;;;;;;4.50;4.10;;;5.70;99.90;;;;;;4988611;28;21072;-66
2023/12/13 05:48:51;;;;;;;4.20;3.80;;;5.70;99.90;;;;;;4995666;28;20475;-65
2023/12/13 05:51:20;;;;;;;6.30;4.27;;;5.70;99.90;;;;;;4993999;28;20472;-66
2023/12/13 05:53:48;;;;;;;5.27;4.77;;;5.80;99.90;;;;;;4967884;28;21016;-67
2023/12/13 05:56:16;;;;;;;6.80;5.40;;;5.80;99.90;;;;;;4999397;28;20492;-65
2023/12/13 05:58:44;;;;;;;3.87;3.43;;;5.80;99.90;;;;;;4997043;28;20559;-66
2023/12/13 06:01:12;;;;;;;5.50;4.70;;;5.80;99.90;;;;;;4998109;28;20932;-68
2023/12/13 06:03:41;;;;;;;6.70;4.80;;;5.80;99.90;;;;;;4988112;28;20512;-66
2023/12/13 06:06:09;;;;;;;5.77;4.77;;;5.80;99.90;;;;;;4996262;28;20500;-66
2023/12/13 06:08:40;;;;;;;6.43;4.90;;;5.80;99.90;;;;;;5003315;28;20475;-68
2023/12/13 06:11:08;;;;;;;7.77;5.00;;;5.70;99.90;;;;;;4996536;28;20546;-64
2023/12/13 06:13:36;;;;;;;7.60;5.07;;;5.80;99.90;;;;;;4987252;28;20578;-64
2023/12/13 06:16:06;;;;;;;4.90;4.43;;;5.70;99.90;;;;;;4991385;28;20549;-63
2023/12/13 06:18:34;;;;;;;7.40;5.20;;;5.80;99.90;;;;;;5000139;28;20476;-63
2023/12/13 06:21:02;;;;;;;6.90;5.10;;;5.70;99.90;;;;;;4994550;28;20487;-64
2023/12/13 06:23:30;;;;;;;6.50;5.43;;;5.70;99.90;;;;;;4999976;28;20559;-63
2023/12/13 06:25:59;;;;;;;6.33;4.57;;;5.70;99.90;;;;;;5004578;28;21105;-64
2023/12/13 06:28:27;;;;;;;6.40;4.97;;;5.70;99.90;;;;;;5003457;28;20572;-64
2023/12/13 06:30:55;;;;;;;4.97;4.47;;;5.70;99.90;;;;;;4997952;28;20472;-64
2023/12/13 06:33:23;;;;;;;5.73;5.13;;;5.70;99.90;;;;;;4999113;28;20587;-63
2023/12/13 06:35:52;;;;;;;8.40;5.63;;;5.70;99.90;;;;;;4997413;28;20506;-63
2023/12/13 06:38:20;;;;;;;7.07;5.20;;;5.80;99.90;;;;;;4994010;28;20478;-63
2023/12/13 06:40:48;;;;;;;6.73;5.20;;;5.80;99.90;;;;;;4998699;28;20568;-64
2023/12/13 06:43:17;;;;;;;5.87;5.10;;;5.80;99.90;;;;;;4996889;28;20479;-64
2023/12/13 06:45:45;;;;;;;7.50;5.40;;;5.80;99.90;;;;;;4990615;28;21187;-64
2023/12/13 06:48:13;;;;;;;7.60;5.40;;;5.80;99.90;;;;;;4993366;28;20857;-64
2023/12/13 06:50:41;;;;;;;5.90;5.07;;;5.70;99.90;;;;;;4993028;28;20907;-63
2023/12/13 06:53:09;;;;;;;6.20;4.83;;;5.80;99.90;;;;;;4990751;28;20973;-63
2023/12/13 06:55:37;;;;;;;6.07;4.67;;;5.80;99.90;;;;;;4994318;28;20507;-63
2023/12/13 06:58:06;;;;;;;7.00;5.40;;;5.70;99.90;;;;;;4996160;28;20472;-64
2023/12/13 07:00:36;;;;;;;5.57;5.03;;;5.70;99.90;;;;;;4995495;28;20566;-63
2023/12/13 07:03:04;;;;;;;6.53;5.20;;;5.70;99.90;;;;;;4996443;28;20464;-61
2023/12/13 07:05:32;;;;;;;5.97;4.97;;;5.70;99.90;;;;;;4996767;28;21036;-63
2023/12/13 07:08:00;;;;;;;7.80;5.30;;;5.70;99.90;;;;;;4994662;28;20500;-64
2023/12/13 07:10:28;;;;;;;6.13;4.93;;;5.70;99.90;;;;;;4995058;28;20473;-64
2023/12/13 07:12:57;;;;;;;5.23;4.40;;;5.70;99.90;;;;;;5001305;28;20586;-64
2023/12/13 07:15:24;;;;;;;6.60;5.57;;;5.70;99.90;;;;;;4999203;28;20575;-62
2023/12/13 07:17:54;;;;;;;8.93;6.80;;;5.70;99.90;;;;;;4999069;28;20508;-64
2023/12/13 07:20:22;;;;;;;8.53;5.70;;;5.70;99.90;;;;;;4996378;28;20469;-64
2023/12/13 07:22:50;;;;;;;6.13;5.50;;;5.70;99.90;;;;;;5002184;28;21771;-64
2023/12/13 07:25:18;;;;;;;7.77;5.00;;;5.70;99.90;;;;;;4993151;28;20494;-64
2023/12/13 07:27:46;;;;;;;6.67;5.37;;;5.70;99.90;;;;;;4995697;28;21047;-63
2023/12/13 07:30:15;;;;;;;7.30;5.37;;;5.70;99.90;;;;;;4997486;28;20468;-64
2023/12/13 07:32:44;;;;;;;5.27;4.77;;;5.70;99.90;;;;;;4999759;28;20622;-63
2023/12/13 07:35:13;;;;;;;5.87;4.90;;;5.60;99.90;;;;;;4999055;28;21443;-62
2023/12/13 07:37:41;;;;;;;5.13;4.43;;;5.60;99.90;;;;;;4990985;28;20898;-64
2023/12/13 07:40:10;;;;;;;6.47;5.13;;;5.60;99.90;;;;;;4996480;28;20477;-64
2023/12/13 07:42:38;;;;;;;5.53;4.80;;;5.60;99.90;;;;;;4993405;28;20476;-64
2023/12/13 07:45:07;;;;;;;6.10;4.87;;;5.60;99.90;;;;;;4998756;28;20578;-62
2023/12/13 07:47:35;;;;;;;5.70;5.07;;;5.70;99.90;;;;;;5000283;28;21137;-64
2023/12/13 07:50:03;;;;;;;6.87;5.27;;;5.70;99.90;;;;;;4998169;28;20547;-62
2023/12/13 07:52:33;;;;;;;5.67;5.00;;;5.60;99.90;;;;;;4998419;28;20504;-64
2023/12/13 07:55:02;;;;;;;5.20;4.70;;;5.60;99.90;;;;;;5000279;28;20492;-62
2023/12/13 07:57:31;;;;;;;5.60;4.80;;;5.60;99.90;;;;;;5002564;28;21181;-63
2023/12/13 07:59:59;;;;;;;7.00;4.90;;;5.60;99.90;;;;;;5004224;28;21819;-63
2023/12/13 08:02:27;;;;;;;6.50;5.00;;;5.60;99.90;;;;;;4995423;28;20480;-63
2023/12/13 08:05:05;;;;;;;6.50;5.00;;;5.60;99.90;;;;;;4998808;28;20952;-63
2023/12/13 08:07:35;;;;;;;7.03;4.47;;;5.60;99.90;;;;;;4995215;28;20783;-64
2023/12/13 08:10:06;;;;;;;5.40;4.90;;;5.60;99.90;;;;;;4990661;28;20547;-63
2023/12/13 08:12:35;;;;;;;5.57;5.07;;;5.60;99.90;;;;;;4993047;28;20547;-64
2023/12/13 08:15:05;;;;;;;4.60;4.10;;;5.50;99.90;;;;;;4997765;28;20499;-64
2023/12/13 08:17:33;;;;;;;5.63;4.60;;;5.50;99.90;;;;;;4999503;28;20483;-63
2023/12/13 08:20:02;;;;;;;7.00;5.17;;;5.60;99.90;;;;;;4997872;28;20566;-64
2023/12/13 08:22:30;;;;;;;5.27;4.77;;;5.60;99.90;;;;;;5003678;28;20475;-64
2023/12/13 08:24:59;;;;;;;7.60;5.03;;;5.60;99.90;;;;;;5000470;28;20546;-64
2023/12/13 08:27:27;;;;;;;4.73;4.27;;;5.60;99.90;;;;;;5000445;28;20551;-66
2023/12/13 08:29:55;;;;;;;5.50;4.60;;;5.70;99.90;;;;;;5000999;28;20603;-64
2023/12/13 08:32:23;;;;;;;5.43;4.60;;;5.70;99.90;;;;;;5003031;28;20587;-64
2023/12/13 08:34:51;;;;;;;5.77;4.43;;;5.60;99.90;;;;;;4989017;28;20702;-64
2023/12/13 08:37:21;;;;;;;5.57;5.07;;;5.60;99.90;;;;;;4988868;28;20895;-64
2023/12/13 08:39:49;;;;;;;6.17;5.10;;;5.60;99.90;;;;;;4991014;28;20594;-63
2023/12/13 08:42:19;;;;;;;5.87;4.73;;;5.60;99.90;;;;;;4990619;28;20472;-63
2023/12/13 08:44:47;;;;;;;5.33;4.70;;;5.60;99.90;;;;;;4993891;28;20496;-64
2023/12/13 08:47:15;;;;;;;5.53;5.00;;;5.60;99.90;;;;;;4992437;28;20566;-64
2023/12/13 08:49:44;;;;;;;5.40;4.70;;;5.60;99.90;;;;;;4997602;28;21197;-64
2023/12/13 08:52:16;;;;;;;6.23;4.97;;;5.60;99.90;;;;;;4997573;28;20468;-64
2023/12/13 08:54:46;;;;;;;5.50;5.00;;;5.60;99.90;;;;;;4993250;28;20503;-63
2023/12/13 08:57:14;;;;;;;5.67;4.87;;;5.60;99.90;;;;;;4988675;28;20479;-64
2023/12/13 08:59:44;;;;;;;5.47;4.90;;;5.60;99.90;;;;;;5000067;28;20480;-64
2023/12/13 09:02:14;;;;;;;6.37;5.40;;;5.60;99.90;;;;;;4988025;28;20483;-64
2023/12/13 09:04:42;;;;;;;7.10;5.57;;;5.60;99.90;;;;;;5000700;28;20499;-64
2023/12/13 09:07:10;;;;;;;7.30;5.80;;;5.70;99.90;;;;;;4993564;28;20488;-64
2023/12/13 09:09:39;;;;;;;6.23;5.23;;;5.70;99.90;;;;;;4998481;28;20491;-64
2023/12/13 09:12:07;;;;;;;8.30;6.33;;;5.70;99.90;;;;;;5001933;28;20555;-64
2023/12/13 09:14:35;;;;;;;7.00;6.10;;;5.70;99.90;;;;;;5001660;28;20516;-64
2023/12/13 09:17:04;;;;;;;5.80;5.00;;;5.70;99.90;;;;;;4997851;28;20563;-63
2023/12/13 09:19:32;;;;;;;7.33;5.57;;;5.70;99.90;;;;;;4998050;28;20867;-64
2023/12/13 09:22:03;;;;;;;6.80;6.03;;;5.60;99.90;;;;;;5003423;28;20472;-64
2023/12/13 09:24:31;;;;;;;6.80;5.70;;;5.60;99.90;;;;;;4998653;28;20679;-64
2023/12/13 09:26:59;;;;;;;8.47;6.77;;;5.60;99.90;;;;;;4997685;28;21131;-64
2023/12/13 09:29:27;;;;;;;7.43;6.23;;;5.70;99.90;;;;;;4997256;28;20612;-64
2023/12/13 09:31:55;;;;;;;6.33;5.17;;;5.70;99.90;;;;;;5000256;28;20476;-64
2023/12/13 09:34:25;;;;;;;7.17;5.70;;;5.70;99.90;;;;;;5000729;28;20502;-64
2023/12/13 09:36:54;;;;;;;7.83;6.10;;;5.70;99.90;;;;;;5001212;28;20468;-64
2023/12/13 09:39:22;;;;;;;6.20;5.57;;;5.70;99.90;;;;;;4996087;28;20478;-64
2023/12/13 09:42:00;;;;;;;7.20;5.63;;;5.70;99.90;;;;;;4998796;28;20574;-64
2023/12/13 09:44:29;;;;;;;7.23;5.80;;;5.70;99.90;;;;;;5002701;28;20522;-63
2023/12/13 09:47:00;;;;;;;6.40;5.63;;;5.70;99.90;;;;;;4997531;28;20543;-64
2023/12/13 09:49:29;;;;;;;7.10;5.80;;;5.70;99.90;;;;;;5000548;28;20478;-63
2023/12/13 09:52:08;;;;;;;6.27;5.20;;;5.70;99.90;;;;;;5000319;28;20472;-64
2023/12/13 09:54:39;;;;;;;6.60;5.57;;;5.70;99.90;;;;;;5002974;28;20515;-64
2023/12/13 09:57:07;;;;;;;6.00;5.40;;;5.70;99.90;;;;;;5001635;28;20559;-64
2023/12/13 09:59:38;;;;;;;7.10;6.40;;;5.80;99.90;;;;;;5004867;28;20488;-63
2023/12/13 10:02:11;;;;;;;7.70;5.33;;;5.80;99.90;;;;;;4996821;28;20472;-64
2023/12/13 10:04:41;;;;;;;7.37;6.30;;;5.70;99.90;;;;;;5000809;28;20486;-64
2023/12/13 10:07:09;;;;;;;6.80;5.67;;;5.70;99.90;;;;;;5002114;28;20881;-63
2023/12/13 10:09:37;;;;;;;7.90;5.60;;;5.70;99.90;;;;;;4987518;28;20476;-64
2023/12/13 10:12:07;;;;;;;6.10;5.33;;;5.70;99.90;;;;;;4991245;28;20550;-64
2023/12/13 10:14:36;;;;;;;5.63;4.97;;;5.70;99.90;;;;;;4997394;28;20492;-64
2023/12/13 10:17:04;;;;;;;7.13;5.80;;;5.70;99.90;;;;;;4995544;28;20480;-62
2023/12/13 10:19:47;;;;;;;7.60;5.60;;;5.70;99.90;;;;;;4994890;28;20495;-64
2023/12/13 10:22:17;;;;;;;6.53;5.10;;;5.70;99.90;;;;;;4992534;28;20471;-64
2023/12/13 10:24:47;;;;;;;6.90;5.30;;;5.70;99.90;;;;;;4994062;28;20492;-64
2023/12/13 10:27:15;;;;;;;5.13;4.63;;;5.70;99.90;;;;;;5002388;28;20893;-64
2023/12/13 10:29:45;;;;;;;5.40;4.80;;;5.70;99.90;;;;;;5004456;28;20915;-63
2023/12/13 10:32:13;;;;;;;5.90;4.97;;;5.70;99.90;;;;;;5001962;28;20478;-64
2023/12/13 10:34:42;;;;;;;6.70;4.80;;;5.70;99.90;;;;;;5003012;28;20496;-64
2023/12/13 10:37:13;;;;;;;5.23;4.73;;;5.70;99.90;;;;;;5002076;28;20877;-64
2023/12/13 10:39:44;;;;;;;7.10;5.23;;;5.70;99.90;;;;;;5002268;28;20478;-64
2023/12/13 10:42:16;;;;;;;5.27;4.40;;;5.70;99.90;;;;;;4994153;28;20468;-64
2023/12/13 10:44:47;;;;;;;5.10;4.60;;;5.70;99.90;;;;;;5000071;28;20480;-63
2023/12/13 10:47:17;;;;;;;5.50;4.93;;;5.70;99.90;;;;;;5004814;28;21071;-62
2023/12/13 10:49:46;;;;;;;4.90;4.20;;;5.70;99.90;;;;;;5003562;28;21027;-64
2023/12/13 10:52:17;;;;;;;5.60;4.63;;;5.70;99.90;;;;;;4994629;28;20483;-64
2023/12/13 10:54:45;;;;;;;5.73;4.17;;;5.70;99.90;;;;;;5000313;28;21178;-63
2023/12/13 10:57:13;;;;;;;5.00;4.50;;;5.70;99.90;;;;;;5003252;28;20548;-63
2023/12/13 10:59:43;;;;;;;4.40;3.73;;;5.70;99.90;;;;;;5002920;28;20512;-64
2023/12/13 11:02:13;;;;;;;5.40;4.87;;;5.70;99.90;;;;;;4999249;28;21108;-64
2023/12/13 11:04:43;;;;;;;4.80;4.40;;;5.70;99.90;;;;;;5001790;28;20801;-63
2023/12/13 11:07:11;;;;;;;5.40;4.00;;;5.70;99.90;;;;;;5001091;28;20480;-62
2023/12/13 11:09:54;;;;;;;4.97;4.30;;;5.70;99.90;;;;;;4999771;28;20563;-64
2023/12/13 11:12:22;;;;;;;5.00;4.57;;;5.70;99.90;;;;;;5001017;28;20555;-63
2023/12/13 11:14:51;;;;;;;4.80;3.97;;;5.70;99.90;;;;;;5002753;28;20487;-64
2023/12/13 11:17:21;;;;;;;4.57;4.10;;;5.70;99.90;;;;;;5001521;28;20480;-62
2023/12/13 11:19:52;;;;;;;4.93;4.43;;;5.70;99.90;;;;;;4999103;28;20991;-62
2023/12/13 11:22:23;;;;;;;4.37;3.97;;;5.80;99.90;;;;;;5000505;28;20935;-64
2023/12/13 11:25:03;;;;;;;12.40;6.77;;;5.80;99.90;;;;;;5000601;28;20499;-64
2023/12/13 11:27:32;;;;;;;7.57;5.07;;;5.80;99.90;;;;;;4994955;28;20482;-63
2023/12/13 11:30:13;;;;;;;4.77;4.20;;;5.90;99.90;;;;;;5000302;28;20846;-64
2023/12/13 11:32:44;;;;;;;4.63;4.10;;;5.90;99.90;;;;;;4997108;28;20501;-64
2023/12/13 11:35:14;;;;;;;7.33;5.23;;;5.80;99.90;;;;;;4997318;28;20516;-61
2023/12/13 11:37:43;;;;;;;7.50;5.33;;;5.80;99.90;;;;;;4997917;28;20468;-64
2023/12/13 11:40:13;;;;;;;7.60;4.40;;;5.70;99.90;;;;;;5000452;28;20476;-63
2023/12/13 11:42:41;;;;;;;4.90;4.23;;;5.80;99.90;;;;;;4997849;28;20480;-62
2023/12/13 11:45:10;;;;;;;4.57;3.93;;;5.80;99.90;;;;;;4998909;28;20508;-62
2023/12/13 11:47:39;;;;;;;10.27;6.53;;;5.80;99.90;;;;;;5004810;28;20991;-64
2023/12/13 11:50:10;;;;;;;5.23;4.70;;;5.80;99.90;;;;;;4993777;28;20480;-64
2023/12/13 11:52:38;;;;;;;5.00;4.27;;;5.80;99.90;;;;;;4999937;28;20480;-64
2023/12/13 11:55:08;;;;;;;4.70;4.20;;;5.80;99.90;;;;;;4996415;28;20488;-64
2023/12/13 11:57:41;;;;;;;5.30;4.80;;;5.80;99.90;;;;;;4994115;28;21090;-64
2023/12/13 12:00:10;;;;;;;7.73;5.17;;;5.70;99.90;;;;;;4992864;28;21010;-62
2023/12/13 12:02:39;;;;;;;4.20;3.80;;;5.70;99.90;;;;;;4999881;28;20487;-64
2023/12/13 12:05:07;;;;;;;4.80;3.40;;;5.80;99.90;;;;;;4999730;28;20484;-63
2023/12/13 12:07:36;;;;;;;3.93;3.53;;;5.70;99.90;;;;;;5001912;28;20467;-64
2023/12/13 12:10:07;;;;;;;4.50;2.87;;;5.70;99.90;;;;;;5001876;28;20476;-63
2023/12/13 12:12:37;;;;;;;5.10;3.30;;;5.70;99.90;;;;;;5002275;28;20464;-64
2023/12/13 12:15:08;;;;;;;4.20;3.43;;;5.70;99.90;;;;;;5005053;28;20491;-64
2023/12/13 12:17:36;;;;;;;3.43;3.10;;;5.70;99.90;;;;;;4993043;28;21733;-64
2023/12/13 12:20:07;;;;;;;6.90;3.50;;;5.70;99.90;;;;;;4998319;28;20484;-62
2023/12/13 12:22:36;;;;;;;3.80;3.00;;;5.70;99.90;;;;;;4995642;28;20499;-63
2023/12/13 12:25:06;;;;;;;3.23;2.83;;;5.70;99.90;;;;;;4994680;28;20539;-63
2023/12/13 12:27:35;;;;;;;4.27;3.67;;;5.70;99.90;;;;;;4999279;28;20473;-63
2023/12/13 12:30:04;;;;;;;4.37;3.70;;;5.60;99.90;;;;;;4997545;28;20981;-62
2023/12/13 12:32:34;;;;;;;3.50;3.20;;;5.60;99.90;;;;;;4999206;28;20491;-64
2023/12/13 12:35:02;;;;;;;3.50;3.20;;;5.60;99.90;;;;;;4994372;28;20499;-63
2023/12/13 12:37:31;;;;;;;3.30;3.00;;;5.60;99.90;;;;;;5000750;28;20477;-64
2023/12/13 12:39:59;;;;;;;4.17;3.67;;;5.60;99.90;;;;;;4998100;28;20487;-64
2023/12/13 12:42:27;;;;;;;3.60;3.30;;;5.60;99.90;;;;;;4991523;28;20504;-64
2023/12/13 12:44:55;;;;;;;4.83;3.23;;;5.70;99.90;;;;;;4992069;28;21147;-64
2023/12/13 12:47:24;;;;;;;3.40;3.10;;;5.70;99.90;;;;;;4999160;28;20548;-64
2023/12/13 12:49:53;;;;;;;5.10;3.23;;;5.70;99.90;;;;;;5002717;28;20492;-63
2023/12/13 12:52:21;;;;;;;7.10;3.20;;;5.60;99.90;;;;;;5001533;28;20476;-63
2023/12/13 12:54:49;;;;;;;3.40;3.10;;;5.60;99.90;;;;;;4996952;28;21558;-64
2023/12/13 12:57:18;;;;;;;3.73;3.23;;;5.60;99.90;;;;;;4999617;28;21103;-64
2023/12/13 12:59:50;;;;;;;3.33;3.03;;;5.60;99.90;;;;;;5001544;28;20476;-64
2023/12/13 13:02:18;;;;;;;3.70;3.33;;;5.60;99.90;;;;;;4996254;28;21029;-64
2023/12/13 13:04:47;;;;;;;3.60;3.27;;;5.60;99.90;;;;;;4998721;28;20504;-62